sensor_id;sensor_type;location;lat;lon;timestamp;P1;durP1;ratioP1;P2;durP2;ratioP2
84478;SDS011;74701;43.248;0.066;2023-12-20T00:02:02;11.13;;;8.23;;
84478;SDS011;74701;43.248;0.066;2023-12-20T00:04:28;11.98;;;7.85;;
84478;SDS011;74701;43.248;0.066;2023-12-20T00:06:54;11.07;;;7.72;;
84478;SDS011;74701;43.248;0.066;2023-12-20T00:09:20;10.70;;;8.38;;
84478;SDS011;74701;43.248;0.066;2023-12-20T00:11:46;10.45;;;7.60;;
84478;SDS011;74701;43.248;0.066;2023-12-20T00:14:12;14.93;;;8.23;;
84478;SDS011;74701;43.248;0.066;2023-12-20T00:16:38;11.00;;;7.97;;
84478;SDS011;74701;43.248;0.066;2023-12-20T00:19:04;11.52;;;7.80;;
84478;SDS011;74701;43.248;0.066;2023-12-20T00:21:30;15.05;;;8.85;;
84478;SDS011;74701;43.248;0.066;2023-12-20T00:23:56;10.48;;;7.32;;
84478;SDS011;74701;43.248;0.066;2023-12-20T00:26:22;14.38;;;8.73;;
84478;SDS011;74701;43.248;0.066;2023-12-20T00:28:48;10.98;;;7.15;;
84478;SDS011;74701;43.248;0.066;2023-12-20T00:31:14;9.90;;;7.63;;
84478;SDS011;74701;43.248;0.066;2023-12-20T00:33:40;9.88;;;7.43;;
84478;SDS011;74701;43.248;0.066;2023-12-20T00:36:08;11.43;;;7.53;;
84478;SDS011;74701;43.248;0.066;2023-12-20T00:38:34;13.15;;;8.15;;
84478;SDS011;74701;43.248;0.066;2023-12-20T00:41:00;12.52;;;7.82;;
84478;SDS011;74701;43.248;0.066;2023-12-20T00:43:27;13.07;;;8.23;;
84478;SDS011;74701;43.248;0.066;2023-12-20T00:45:53;10.75;;;7.22;;
84478;SDS011;74701;43.248;0.066;2023-12-20T00:48:20;12.35;;;9.32;;
84478;SDS011;74701;43.248;0.066;2023-12-20T00:50:46;12.25;;;7.43;;
84478;SDS011;74701;43.248;0.066;2023-12-20T00:53:12;11.07;;;8.05;;
84478;SDS011;74701;43.248;0.066;2023-12-20T00:55:38;11.45;;;7.70;;
84478;SDS011;74701;43.248;0.066;2023-12-20T00:58:05;13.18;;;7.47;;
84478;SDS011;74701;43.248;0.066;2023-12-20T01:00:31;11.32;;;7.28;;
84478;SDS011;74701;43.248;0.066;2023-12-20T01:02:58;15.23;;;7.53;;
84478;SDS011;74701;43.248;0.066;2023-12-20T01:05:24;12.43;;;8.10;;
84478;SDS011;74701;43.248;0.066;2023-12-20T01:07:50;14.05;;;7.40;;
84478;SDS011;74701;43.248;0.066;2023-12-20T01:10:16;11.40;;;7.85;;
84478;SDS011;74701;43.248;0.066;2023-12-20T01:12:42;16.25;;;8.45;;
84478;SDS011;74701;43.248;0.066;2023-12-20T01:15:09;11.57;;;7.47;;
84478;SDS011;74701;43.248;0.066;2023-12-20T01:17:35;16.67;;;9.20;;
84478;SDS011;74701;43.248;0.066;2023-12-20T01:20:01;17.15;;;9.82;;
84478;SDS011;74701;43.248;0.066;2023-12-20T01:22:27;15.43;;;8.35;;
84478;SDS011;74701;43.248;0.066;2023-12-20T01:24:53;14.25;;;8.70;;
84478;SDS011;74701;43.248;0.066;2023-12-20T01:27:19;17.05;;;9.55;;
84478;SDS011;74701;43.248;0.066;2023-12-20T01:29:45;16.67;;;8.60;;
84478;SDS011;74701;43.248;0.066;2023-12-20T01:32:11;16.45;;;9.38;;
84478;SDS011;74701;43.248;0.066;2023-12-20T01:34:37;21.58;;;10.52;;
84478;SDS011;74701;43.248;0.066;2023-12-20T01:37:03;16.50;;;8.88;;
84478;SDS011;74701;43.248;0.066;2023-12-20T01:39:29;12.57;;;8.55;;
84478;SDS011;74701;43.248;0.066;2023-12-20T01:41:55;15.05;;;8.77;;
84478;SDS011;74701;43.248;0.066;2023-12-20T01:44:22;13.15;;;7.95;;
84478;SDS011;74701;43.248;0.066;2023-12-20T01:46:48;11.30;;;8.05;;
84478;SDS011;74701;43.248;0.066;2023-12-20T01:49:14;12.00;;;8.55;;
84478;SDS011;74701;43.248;0.066;2023-12-20T01:51:40;12.82;;;9.38;;
84478;SDS011;74701;43.248;0.066;2023-12-20T01:54:06;13.75;;;8.57;;
84478;SDS011;74701;43.248;0.066;2023-12-20T01:56:33;12.18;;;8.95;;
84478;SDS011;74701;43.248;0.066;2023-12-20T01:58:59;14.02;;;9.98;;
84478;SDS011;74701;43.248;0.066;2023-12-20T02:01:26;11.95;;;9.13;;
84478;SDS011;74701;43.248;0.066;2023-12-20T02:03:53;14.68;;;9.75;;
84478;SDS011;74701;43.248;0.066;2023-12-20T02:06:19;15.23;;;10.00;;
84478;SDS011;74701;43.248;0.066;2023-12-20T02:08:47;15.85;;;10.15;;
84478;SDS011;74701;43.248;0.066;2023-12-20T02:11:14;12.45;;;9.85;;
84478;SDS011;74701;43.248;0.066;2023-12-20T02:13:40;13.73;;;9.35;;
84478;SDS011;74701;43.248;0.066;2023-12-20T02:16:06;13.20;;;10.00;;
84478;SDS011;74701;43.248;0.066;2023-12-20T02:18:32;9.05;;;7.20;;
84478;SDS011;74701;43.248;0.066;2023-12-20T02:20:58;11.75;;;7.65;;
84478;SDS011;74701;43.248;0.066;2023-12-20T02:23:24;15.65;;;9.98;;
84478;SDS011;74701;43.248;0.066;2023-12-20T02:25:50;12.48;;;8.82;;
84478;SDS011;74701;43.248;0.066;2023-12-20T02:28:16;19.02;;;12.15;;
84478;SDS011;74701;43.248;0.066;2023-12-20T02:30:43;12.43;;;8.32;;
84478;SDS011;74701;43.248;0.066;2023-12-20T02:33:10;12.07;;;8.32;;
84478;SDS011;74701;43.248;0.066;2023-12-20T02:35:36;13.85;;;9.70;;
84478;SDS011;74701;43.248;0.066;2023-12-20T02:38:02;9.10;;;6.20;;
84478;SDS011;74701;43.248;0.066;2023-12-20T02:40:29;9.05;;;6.30;;
84478;SDS011;74701;43.248;0.066;2023-12-20T02:42:55;10.73;;;8.02;;
84478;SDS011;74701;43.248;0.066;2023-12-20T02:45:21;9.85;;;7.80;;
84478;SDS011;74701;43.248;0.066;2023-12-20T02:47:47;11.77;;;7.45;;
84478;SDS011;74701;43.248;0.066;2023-12-20T02:50:13;11.85;;;8.00;;
84478;SDS011;74701;43.248;0.066;2023-12-20T02:52:39;16.42;;;8.75;;
84478;SDS011;74701;43.248;0.066;2023-12-20T02:55:05;13.35;;;9.10;;
84478;SDS011;74701;43.248;0.066;2023-12-20T02:57:31;13.88;;;9.27;;
84478;SDS011;74701;43.248;0.066;2023-12-20T02:59:58;14.35;;;8.70;;
84478;SDS011;74701;43.248;0.066;2023-12-20T03:02:24;14.70;;;9.65;;
84478;SDS011;74701;43.248;0.066;2023-12-20T03:04:50;14.40;;;9.32;;
84478;SDS011;74701;43.248;0.066;2023-12-20T03:07:16;13.93;;;9.07;;
84478;SDS011;74701;43.248;0.066;2023-12-20T03:09:42;17.23;;;10.98;;
84478;SDS011;74701;43.248;0.066;2023-12-20T03:12:08;14.65;;;9.95;;
84478;SDS011;74701;43.248;0.066;2023-12-20T03:14:34;16.27;;;10.40;;
84478;SDS011;74701;43.248;0.066;2023-12-20T03:17:00;16.20;;;10.00;;
84478;SDS011;74701;43.248;0.066;2023-12-20T03:19:26;17.13;;;11.32;;
84478;SDS011;74701;43.248;0.066;2023-12-20T03:21:54;20.27;;;11.68;;
84478;SDS011;74701;43.248;0.066;2023-12-20T03:24:20;18.45;;;10.82;;
84478;SDS011;74701;43.248;0.066;2023-12-20T03:26:46;19.38;;;11.25;;
84478;SDS011;74701;43.248;0.066;2023-12-20T03:29:12;16.58;;;10.25;;
84478;SDS011;74701;43.248;0.066;2023-12-20T03:31:38;18.83;;;12.10;;
84478;SDS011;74701;43.248;0.066;2023-12-20T03:34:04;21.75;;;12.80;;
84478;SDS011;74701;43.248;0.066;2023-12-20T03:36:30;19.23;;;12.15;;
84478;SDS011;74701;43.248;0.066;2023-12-20T03:38:57;21.88;;;12.75;;
84478;SDS011;74701;43.248;0.066;2023-12-20T03:41:23;25.08;;;13.70;;
84478;SDS011;74701;43.248;0.066;2023-12-20T03:43:49;22.65;;;12.52;;
84478;SDS011;74701;43.248;0.066;2023-12-20T03:46:15;19.77;;;12.35;;
84478;SDS011;74701;43.248;0.066;2023-12-20T03:48:41;18.75;;;10.93;;
84478;SDS011;74701;43.248;0.066;2023-12-20T03:51:07;22.02;;;11.07;;
84478;SDS011;74701;43.248;0.066;2023-12-20T03:53:33;21.50;;;11.98;;
84478;SDS011;74701;43.248;0.066;2023-12-20T03:55:59;17.23;;;10.35;;
84478;SDS011;74701;43.248;0.066;2023-12-20T03:58:25;19.02;;;9.07;;
84478;SDS011;74701;43.248;0.066;2023-12-20T04:00:51;18.42;;;10.82;;
84478;SDS011;74701;43.248;0.066;2023-12-20T04:03:17;17.67;;;10.88;;
84478;SDS011;74701;43.248;0.066;2023-12-20T04:05:43;15.25;;;9.30;;
84478;SDS011;74701;43.248;0.066;2023-12-20T04:08:10;14.75;;;8.13;;
84478;SDS011;74701;43.248;0.066;2023-12-20T04:10:36;12.55;;;7.13;;
84478;SDS011;74701;43.248;0.066;2023-12-20T04:13:02;11.18;;;6.78;;
84478;SDS011;74701;43.248;0.066;2023-12-20T04:15:28;10.90;;;6.25;;
84478;SDS011;74701;43.248;0.066;2023-12-20T04:17:54;7.68;;;5.28;;
84478;SDS011;74701;43.248;0.066;2023-12-20T04:20:20;7.35;;;4.22;;
84478;SDS011;74701;43.248;0.066;2023-12-20T04:22:46;4.43;;;3.03;;
84478;SDS011;74701;43.248;0.066;2023-12-20T04:25:13;3.72;;;2.65;;
84478;SDS011;74701;43.248;0.066;2023-12-20T04:27:39;4.32;;;3.13;;
84478;SDS011;74701;43.248;0.066;2023-12-20T04:30:05;4.40;;;2.38;;
84478;SDS011;74701;43.248;0.066;2023-12-20T04:32:31;3.92;;;2.42;;
84478;SDS011;74701;43.248;0.066;2023-12-20T04:34:57;5.88;;;5.15;;
84478;SDS011;74701;43.248;0.066;2023-12-20T04:37:23;4.72;;;3.65;;
84478;SDS011;74701;43.248;0.066;2023-12-20T04:39:50;0.65;;;0.55;;
84478;SDS011;74701;43.248;0.066;2023-12-20T04:42:16;0.00;;;0.00;;
84478;SDS011;74701;43.248;0.066;2023-12-20T04:44:42;0.00;;;0.00;;
84478;SDS011;74701;43.248;0.066;2023-12-20T04:47:08;0.13;;;0.13;;
84478;SDS011;74701;43.248;0.066;2023-12-20T04:49:35;0.30;;;0.30;;
84478;SDS011;74701;43.248;0.066;2023-12-20T04:52:01;0.00;;;0.00;;
84478;SDS011;74701;43.248;0.066;2023-12-20T04:54:27;0.00;;;0.00;;
84478;SDS011;74701;43.248;0.066;2023-12-20T04:56:53;0.00;;;0.00;;
84478;SDS011;74701;43.248;0.066;2023-12-20T04:59:19;1.27;;;1.17;;
84478;SDS011;74701;43.248;0.066;2023-12-20T05:01:45;0.00;;;0.00;;
84478;SDS011;74701;43.248;0.066;2023-12-20T05:04:11;0.00;;;0.00;;
84478;SDS011;74701;43.248;0.066;2023-12-20T05:06:37;0.00;;;0.00;;
84478;SDS011;74701;43.248;0.066;2023-12-20T05:09:03;0.00;;;0.00;;
84478;SDS011;74701;43.248;0.066;2023-12-20T05:11:29;0.00;;;0.00;;
84478;SDS011;74701;43.248;0.066;2023-12-20T05:13:55;9.55;;;1.38;;
84478;SDS011;74701;43.248;0.066;2023-12-20T05:16:22;0.00;;;0.00;;
84478;SDS011;74701;43.248;0.066;2023-12-20T05:18:48;0.00;;;0.00;;
84478;SDS011;74701;43.248;0.066;2023-12-20T05:21:18;0.10;;;0.10;;
84478;SDS011;74701;43.248;0.066;2023-12-20T05:23:44;0.65;;;0.65;;
84478;SDS011;74701;43.248;0.066;2023-12-20T05:26:10;0.00;;;0.00;;
84478;SDS011;74701;43.248;0.066;2023-12-20T05:28:36;0.00;;;0.00;;
84478;SDS011;74701;43.248;0.066;2023-12-20T05:31:02;2.05;;;1.10;;
84478;SDS011;74701;43.248;0.066;2023-12-20T05:33:28;0.00;;;0.00;;
84478;SDS011;74701;43.248;0.066;2023-12-20T05:35:54;0.00;;;0.00;;
84478;SDS011;74701;43.248;0.066;2023-12-20T05:38:20;0.00;;;0.00;;
84478;SDS011;74701;43.248;0.066;2023-12-20T05:40:46;0.00;;;0.00;;
84478;SDS011;74701;43.248;0.066;2023-12-20T05:43:12;0.00;;;0.00;;
84478;SDS011;74701;43.248;0.066;2023-12-20T05:45:38;0.00;;;0.00;;
84478;SDS011;74701;43.248;0.066;2023-12-20T05:48:05;0.00;;;0.00;;
84478;SDS011;74701;43.248;0.066;2023-12-20T05:50:31;0.00;;;0.00;;
84478;SDS011;74701;43.248;0.066;2023-12-20T05:52:57;0.00;;;0.00;;
84478;SDS011;74701;43.248;0.066;2023-12-20T05:55:23;0.00;;;0.00;;
84478;SDS011;74701;43.248;0.066;2023-12-20T05:57:49;0.00;;;0.00;;
84478;SDS011;74701;43.248;0.066;2023-12-20T06:00:15;0.00;;;0.00;;
84478;SDS011;74701;43.248;0.066;2023-12-20T06:02:41;0.00;;;0.00;;
84478;SDS011;74701;43.248;0.066;2023-12-20T06:05:07;0.00;;;0.00;;
84478;SDS011;74701;43.248;0.066;2023-12-20T06:07:33;0.00;;;0.00;;
84478;SDS011;74701;43.248;0.066;2023-12-20T06:09:59;0.10;;;0.10;;
84478;SDS011;74701;43.248;0.066;2023-12-20T06:12:25;0.00;;;0.00;;
84478;SDS011;74701;43.248;0.066;2023-12-20T06:14:53;0.00;;;0.00;;
84478;SDS011;74701;43.248;0.066;2023-12-20T06:17:20;0.00;;;0.00;;
84478;SDS011;74701;43.248;0.066;2023-12-20T06:19:46;0.00;;;0.00;;
84478;SDS011;74701;43.248;0.066;2023-12-20T06:22:13;0.00;;;0.00;;
84478;SDS011;74701;43.248;0.066;2023-12-20T06:24:39;0.00;;;0.00;;
84478;SDS011;74701;43.248;0.066;2023-12-20T06:27:05;0.00;;;0.00;;
84478;SDS011;74701;43.248;0.066;2023-12-20T06:29:31;0.00;;;0.00;;
84478;SDS011;74701;43.248;0.066;2023-12-20T06:31:57;0.00;;;0.00;;
84478;SDS011;74701;43.248;0.066;2023-12-20T06:34:23;0.00;;;0.00;;
84478;SDS011;74701;43.248;0.066;2023-12-20T06:36:49;0.00;;;0.00;;
84478;SDS011;74701;43.248;0.066;2023-12-20T06:39:15;0.00;;;0.00;;
84478;SDS011;74701;43.248;0.066;2023-12-20T06:41:41;0.00;;;0.00;;
84478;SDS011;74701;43.248;0.066;2023-12-20T06:44:08;0.00;;;0.00;;
84478;SDS011;74701;43.248;0.066;2023-12-20T06:46:34;0.00;;;0.00;;
84478;SDS011;74701;43.248;0.066;2023-12-20T06:49:00;0.00;;;0.00;;
84478;SDS011;74701;43.248;0.066;2023-12-20T06:51:26;0.00;;;0.00;;
84478;SDS011;74701;43.248;0.066;2023-12-20T06:53:52;0.00;;;0.00;;
84478;SDS011;74701;43.248;0.066;2023-12-20T06:56:18;0.00;;;0.00;;
84478;SDS011;74701;43.248;0.066;2023-12-20T06:58:44;0.00;;;0.00;;
84478;SDS011;74701;43.248;0.066;2023-12-20T07:01:11;0.10;;;0.10;;
84478;SDS011;74701;43.248;0.066;2023-12-20T07:03:38;0.00;;;0.00;;
84478;SDS011;74701;43.248;0.066;2023-12-20T07:06:04;0.00;;;0.00;;
84478;SDS011;74701;43.248;0.066;2023-12-20T07:08:30;0.00;;;0.00;;
84478;SDS011;74701;43.248;0.066;2023-12-20T07:10:57;0.00;;;0.00;;
84478;SDS011;74701;43.248;0.066;2023-12-20T07:13:23;0.00;;;0.00;;
84478;SDS011;74701;43.248;0.066;2023-12-20T07:15:49;0.00;;;0.00;;
84478;SDS011;74701;43.248;0.066;2023-12-20T07:18:15;0.00;;;0.00;;
84478;SDS011;74701;43.248;0.066;2023-12-20T07:20:41;0.10;;;0.10;;
84478;SDS011;74701;43.248;0.066;2023-12-20T07:23:08;0.00;;;0.00;;
84478;SDS011;74701;43.248;0.066;2023-12-20T07:25:34;0.00;;;0.00;;
84478;SDS011;74701;43.248;0.066;2023-12-20T07:28:00;0.00;;;0.00;;
84478;SDS011;74701;43.248;0.066;2023-12-20T07:30:26;0.00;;;0.00;;
84478;SDS011;74701;43.248;0.066;2023-12-20T07:32:53;0.32;;;0.32;;
84478;SDS011;74701;43.248;0.066;2023-12-20T07:35:19;0.00;;;0.00;;
84478;SDS011;74701;43.248;0.066;2023-12-20T07:37:45;0.00;;;0.00;;
84478;SDS011;74701;43.248;0.066;2023-12-20T07:40:11;0.80;;;0.80;;
84478;SDS011;74701;43.248;0.066;2023-12-20T07:42:37;0.00;;;0.00;;
84478;SDS011;74701;43.248;0.066;2023-12-20T07:45:03;0.03;;;0.03;;
84478;SDS011;74701;43.248;0.066;2023-12-20T07:47:29;0.00;;;0.00;;
84478;SDS011;74701;43.248;0.066;2023-12-20T07:49:55;0.00;;;0.00;;
84478;SDS011;74701;43.248;0.066;2023-12-20T07:52:22;0.00;;;0.00;;
84478;SDS011;74701;43.248;0.066;2023-12-20T07:54:49;0.00;;;0.00;;
84478;SDS011;74701;43.248;0.066;2023-12-20T07:57:15;0.00;;;0.00;;
84478;SDS011;74701;43.248;0.066;2023-12-20T07:59:41;0.00;;;0.00;;
84478;SDS011;74701;43.248;0.066;2023-12-20T08:02:07;0.00;;;0.00;;
84478;SDS011;74701;43.248;0.066;2023-12-20T08:04:33;0.00;;;0.00;;
84478;SDS011;74701;43.248;0.066;2023-12-20T08:07:00;0.00;;;0.00;;
84478;SDS011;74701;43.248;0.066;2023-12-20T08:09:27;0.00;;;0.00;;
84478;SDS011;74701;43.248;0.066;2023-12-20T08:11:53;0.00;;;0.00;;
84478;SDS011;74701;43.248;0.066;2023-12-20T08:14:19;0.00;;;0.00;;
84478;SDS011;74701;43.248;0.066;2023-12-20T08:16:45;0.00;;;0.00;;
84478;SDS011;74701;43.248;0.066;2023-12-20T08:19:11;0.57;;;0.50;;
84478;SDS011;74701;43.248;0.066;2023-12-20T08:21:37;0.00;;;0.00;;
84478;SDS011;74701;43.248;0.066;2023-12-20T08:24:03;0.30;;;0.30;;
84478;SDS011;74701;43.248;0.066;2023-12-20T08:26:29;0.00;;;0.00;;
84478;SDS011;74701;43.248;0.066;2023-12-20T08:28:55;0.00;;;0.00;;
84478;SDS011;74701;43.248;0.066;2023-12-20T08:31:21;0.15;;;0.15;;
84478;SDS011;74701;43.248;0.066;2023-12-20T08:33:48;0.00;;;0.00;;
84478;SDS011;74701;43.248;0.066;2023-12-20T08:36:14;0.00;;;0.00;;
84478;SDS011;74701;43.248;0.066;2023-12-20T08:38:42;0.00;;;0.00;;
84478;SDS011;74701;43.248;0.066;2023-12-20T08:41:08;0.00;;;0.00;;
84478;SDS011;74701;43.248;0.066;2023-12-20T08:43:35;0.00;;;0.00;;
84478;SDS011;74701;43.248;0.066;2023-12-20T08:46:01;0.10;;;0.10;;
84478;SDS011;74701;43.248;0.066;2023-12-20T08:48:27;0.00;;;0.00;;
84478;SDS011;74701;43.248;0.066;2023-12-20T08:50:54;0.08;;;0.08;;
84478;SDS011;74701;43.248;0.066;2023-12-20T08:53:20;0.15;;;0.15;;
84478;SDS011;74701;43.248;0.066;2023-12-20T08:55:46;0.00;;;0.00;;
84478;SDS011;74701;43.248;0.066;2023-12-20T08:58:12;0.00;;;0.00;;
84478;SDS011;74701;43.248;0.066;2023-12-20T09:00:39;0.00;;;0.00;;
84478;SDS011;74701;43.248;0.066;2023-12-20T09:03:05;0.00;;;0.00;;
84478;SDS011;74701;43.248;0.066;2023-12-20T09:05:31;0.00;;;0.00;;
84478;SDS011;74701;43.248;0.066;2023-12-20T09:07:57;0.00;;;0.00;;
84478;SDS011;74701;43.248;0.066;2023-12-20T09:10:23;0.00;;;0.00;;
84478;SDS011;74701;43.248;0.066;2023-12-20T09:12:49;0.00;;;0.00;;
84478;SDS011;74701;43.248;0.066;2023-12-20T09:15:15;0.10;;;0.10;;
84478;SDS011;74701;43.248;0.066;2023-12-20T09:17:41;0.00;;;0.00;;
84478;SDS011;74701;43.248;0.066;2023-12-20T09:20:08;0.00;;;0.00;;
84478;SDS011;74701;43.248;0.066;2023-12-20T09:22:35;0.10;;;0.10;;
84478;SDS011;74701;43.248;0.066;2023-12-20T09:25:03;0.80;;;0.80;;
84478;SDS011;74701;43.248;0.066;2023-12-20T09:27:30;0.00;;;0.00;;
84478;SDS011;74701;43.248;0.066;2023-12-20T09:29:56;0.00;;;0.00;;
84478;SDS011;74701;43.248;0.066;2023-12-20T09:32:22;0.00;;;0.00;;
84478;SDS011;74701;43.248;0.066;2023-12-20T09:34:48;9.30;;;0.65;;
84478;SDS011;74701;43.248;0.066;2023-12-20T09:37:14;0.00;;;0.00;;
84478;SDS011;74701;43.248;0.066;2023-12-20T09:39:40;0.00;;;0.00;;
84478;SDS011;74701;43.248;0.066;2023-12-20T09:42:06;0.00;;;0.00;;
84478;SDS011;74701;43.248;0.066;2023-12-20T09:44:33;0.00;;;0.00;;
84478;SDS011;74701;43.248;0.066;2023-12-20T09:47:01;0.00;;;0.00;;
84478;SDS011;74701;43.248;0.066;2023-12-20T09:49:28;0.00;;;0.00;;
84478;SDS011;74701;43.248;0.066;2023-12-20T09:51:55;0.00;;;0.00;;
84478;SDS011;74701;43.248;0.066;2023-12-20T09:54:22;0.40;;;0.32;;
84478;SDS011;74701;43.248;0.066;2023-12-20T09:56:48;0.00;;;0.00;;
84478;SDS011;74701;43.248;0.066;2023-12-20T09:59:14;0.00;;;0.00;;
84478;SDS011;74701;43.248;0.066;2023-12-20T10:01:40;1.65;;;0.38;;
84478;SDS011;74701;43.248;0.066;2023-12-20T10:04:07;0.00;;;0.00;;
84478;SDS011;74701;43.248;0.066;2023-12-20T10:06:36;0.00;;;0.00;;
84478;SDS011;74701;43.248;0.066;2023-12-20T10:09:02;0.40;;;0.15;;
84478;SDS011;74701;43.248;0.066;2023-12-20T10:11:29;0.00;;;0.00;;
84478;SDS011;74701;43.248;0.066;2023-12-20T10:13:58;0.00;;;0.00;;
84478;SDS011;74701;43.248;0.066;2023-12-20T10:16:26;0.00;;;0.00;;
84478;SDS011;74701;43.248;0.066;2023-12-20T10:18:52;0.00;;;0.00;;
84478;SDS011;74701;43.248;0.066;2023-12-20T10:21:19;0.00;;;0.00;;
84478;SDS011;74701;43.248;0.066;2023-12-20T10:23:45;0.00;;;0.00;;
84478;SDS011;74701;43.248;0.066;2023-12-20T10:26:18;0.00;;;0.00;;
84478;SDS011;74701;43.248;0.066;2023-12-20T10:31:25;0.00;;;0.00;;
84478;SDS011;74701;43.248;0.066;2023-12-20T10:33:51;0.00;;;0.00;;
84478;SDS011;74701;43.248;0.066;2023-12-20T10:36:17;0.00;;;0.00;;
84478;SDS011;74701;43.248;0.066;2023-12-20T10:38:43;0.00;;;0.00;;
84478;SDS011;74701;43.248;0.066;2023-12-20T10:41:10;0.45;;;0.45;;
84478;SDS011;74701;43.248;0.066;2023-12-20T10:43:37;0.00;;;0.00;;
84478;SDS011;74701;43.248;0.066;2023-12-20T10:46:03;0.20;;;0.20;;
84478;SDS011;74701;43.248;0.066;2023-12-20T10:48:30;0.00;;;0.00;;
84478;SDS011;74701;43.248;0.066;2023-12-20T10:50:57;0.00;;;0.00;;
84478;SDS011;74701;43.248;0.066;2023-12-20T10:53:24;0.88;;;0.88;;
84478;SDS011;74701;43.248;0.066;2023-12-20T10:55:51;0.00;;;0.00;;
84478;SDS011;74701;43.248;0.066;2023-12-20T10:58:18;0.00;;;0.00;;
84478;SDS011;74701;43.248;0.066;2023-12-20T11:00:45;0.00;;;0.00;;
84478;SDS011;74701;43.248;0.066;2023-12-20T11:03:13;0.00;;;0.00;;
84478;SDS011;74701;43.248;0.066;2023-12-20T11:05:57;0.20;;;0.20;;
84478;SDS011;74701;43.248;0.066;2023-12-20T11:11:12;0.00;;;0.00;;
84478;SDS011;74701;43.248;0.066;2023-12-20T11:16:24;0.00;;;0.00;;
84478;SDS011;74701;43.248;0.066;2023-12-20T11:18:51;0.00;;;0.00;;
84478;SDS011;74701;43.248;0.066;2023-12-20T11:21:17;0.00;;;0.00;;
84478;SDS011;74701;43.248;0.066;2023-12-20T11:23:43;0.00;;;0.00;;
84478;SDS011;74701;43.248;0.066;2023-12-20T11:26:09;0.90;;;0.90;;
84478;SDS011;74701;43.248;0.066;2023-12-20T11:28:35;0.00;;;0.00;;
84478;SDS011;74701;43.248;0.066;2023-12-20T11:31:01;1.02;;;0.75;;
84478;SDS011;74701;43.248;0.066;2023-12-20T11:33:35;0.00;;;0.00;;
84478;SDS011;74701;43.248;0.066;2023-12-20T11:36:01;0.00;;;0.00;;
84478;SDS011;74701;43.248;0.066;2023-12-20T11:38:35;0.00;;;0.00;;
84478;SDS011;74701;43.248;0.066;2023-12-20T11:41:04;0.00;;;0.00;;
84478;SDS011;74701;43.248;0.066;2023-12-20T11:43:31;0.00;;;0.00;;
84478;SDS011;74701;43.248;0.066;2023-12-20T11:46:02;0.00;;;0.00;;
84478;SDS011;74701;43.248;0.066;2023-12-20T11:48:29;0.00;;;0.00;;
84478;SDS011;74701;43.248;0.066;2023-12-20T11:50:56;0.00;;;0.00;;
84478;SDS011;74701;43.248;0.066;2023-12-20T11:53:22;0.00;;;0.00;;
84478;SDS011;74701;43.248;0.066;2023-12-20T11:55:51;0.00;;;0.00;;
84478;SDS011;74701;43.248;0.066;2023-12-20T11:58:17;0.10;;;0.10;;
84478;SDS011;74701;43.248;0.066;2023-12-20T12:00:43;0.00;;;0.00;;
84478;SDS011;74701;43.248;0.066;2023-12-20T12:03:10;0.00;;;0.00;;
84478;SDS011;74701;43.248;0.066;2023-12-20T12:05:36;0.15;;;0.15;;
84478;SDS011;74701;43.248;0.066;2023-12-20T12:08:02;0.10;;;0.10;;
84478;SDS011;74701;43.248;0.066;2023-12-20T12:10:28;0.00;;;0.00;;
84478;SDS011;74701;43.248;0.066;2023-12-20T12:12:55;0.00;;;0.00;;
84478;SDS011;74701;43.248;0.066;2023-12-20T12:15:21;0.00;;;0.00;;
84478;SDS011;74701;43.248;0.066;2023-12-20T12:17:53;16.45;;;1.45;;
84478;SDS011;74701;43.248;0.066;2023-12-20T12:20:20;0.00;;;0.00;;
84478;SDS011;74701;43.248;0.066;2023-12-20T12:22:56;0.30;;;0.30;;
84478;SDS011;74701;43.248;0.066;2023-12-20T12:25:23;0.00;;;0.00;;
84478;SDS011;74701;43.248;0.066;2023-12-20T12:27:50;3.10;;;0.75;;
84478;SDS011;74701;43.248;0.066;2023-12-20T12:30:16;0.00;;;0.00;;
84478;SDS011;74701;43.248;0.066;2023-12-20T12:32:43;0.75;;;0.75;;
84478;SDS011;74701;43.248;0.066;2023-12-20T12:35:10;7.78;;;1.30;;
84478;SDS011;74701;43.248;0.066;2023-12-20T12:37:39;1.40;;;1.35;;
84478;SDS011;74701;43.248;0.066;2023-12-20T12:40:16;0.00;;;0.00;;
84478;SDS011;74701;43.248;0.066;2023-12-20T12:42:43;0.63;;;0.63;;
84478;SDS011;74701;43.248;0.066;2023-12-20T12:45:09;0.00;;;0.00;;
84478;SDS011;74701;43.248;0.066;2023-12-20T12:47:39;0.13;;;0.13;;
84478;SDS011;74701;43.248;0.066;2023-12-20T12:50:05;0.00;;;0.00;;
84478;SDS011;74701;43.248;0.066;2023-12-20T12:52:31;5.35;;;2.05;;
84478;SDS011;74701;43.248;0.066;2023-12-20T12:54:57;0.13;;;0.13;;
84478;SDS011;74701;43.248;0.066;2023-12-20T12:57:23;0.00;;;0.00;;
84478;SDS011;74701;43.248;0.066;2023-12-20T12:59:49;0.00;;;0.00;;
84478;SDS011;74701;43.248;0.066;2023-12-20T13:02:16;0.00;;;0.00;;
84478;SDS011;74701;43.248;0.066;2023-12-20T13:04:42;0.05;;;0.05;;
84478;SDS011;74701;43.248;0.066;2023-12-20T13:07:08;0.00;;;0.00;;
84478;SDS011;74701;43.248;0.066;2023-12-20T13:09:38;0.00;;;0.00;;
84478;SDS011;74701;43.248;0.066;2023-12-20T13:12:05;0.75;;;0.75;;
84478;SDS011;74701;43.248;0.066;2023-12-20T13:14:34;0.00;;;0.00;;
84478;SDS011;74701;43.248;0.066;2023-12-20T13:17:02;0.63;;;0.63;;
84478;SDS011;74701;43.248;0.066;2023-12-20T13:19:28;0.00;;;0.00;;
84478;SDS011;74701;43.248;0.066;2023-12-20T13:21:55;0.00;;;0.00;;
84478;SDS011;74701;43.248;0.066;2023-12-20T13:24:23;0.38;;;0.38;;
84478;SDS011;74701;43.248;0.066;2023-12-20T13:26:49;0.00;;;0.00;;
84478;SDS011;74701;43.248;0.066;2023-12-20T13:29:15;1.65;;;1.55;;
84478;SDS011;74701;43.248;0.066;2023-12-20T13:31:41;0.00;;;0.00;;
84478;SDS011;74701;43.248;0.066;2023-12-20T13:34:07;0.00;;;0.00;;
84478;SDS011;74701;43.248;0.066;2023-12-20T13:36:34;0.00;;;0.00;;
84478;SDS011;74701;43.248;0.066;2023-12-20T13:39:01;0.00;;;0.00;;
84478;SDS011;74701;43.248;0.066;2023-12-20T13:41:29;0.00;;;0.00;;
84478;SDS011;74701;43.248;0.066;2023-12-20T13:43:55;0.00;;;0.00;;
84478;SDS011;74701;43.248;0.066;2023-12-20T13:46:21;0.00;;;0.00;;
84478;SDS011;74701;43.248;0.066;2023-12-20T13:48:48;0.00;;;0.00;;
84478;SDS011;74701;43.248;0.066;2023-12-20T13:51:14;0.00;;;0.00;;
84478;SDS011;74701;43.248;0.066;2023-12-20T13:53:40;0.10;;;0.10;;
84478;SDS011;74701;43.248;0.066;2023-12-20T13:56:06;0.00;;;0.00;;
84478;SDS011;74701;43.248;0.066;2023-12-20T13:58:33;1.95;;;0.75;;
84478;SDS011;74701;43.248;0.066;2023-12-20T14:00:59;0.20;;;0.20;;
84478;SDS011;74701;43.248;0.066;2023-12-20T14:03:25;0.00;;;0.00;;
84478;SDS011;74701;43.248;0.066;2023-12-20T14:05:51;0.05;;;0.05;;
84478;SDS011;74701;43.248;0.066;2023-12-20T14:08:17;0.00;;;0.00;;
84478;SDS011;74701;43.248;0.066;2023-12-20T14:10:43;0.08;;;0.08;;
84478;SDS011;74701;43.248;0.066;2023-12-20T14:13:09;0.00;;;0.00;;
84478;SDS011;74701;43.248;0.066;2023-12-20T14:15:35;0.00;;;0.00;;
84478;SDS011;74701;43.248;0.066;2023-12-20T14:18:05;0.00;;;0.00;;
84478;SDS011;74701;43.248;0.066;2023-12-20T14:20:32;0.00;;;0.00;;
84478;SDS011;74701;43.248;0.066;2023-12-20T14:23:00;0.00;;;0.00;;
84478;SDS011;74701;43.248;0.066;2023-12-20T14:25:26;0.00;;;0.00;;
84478;SDS011;74701;43.248;0.066;2023-12-20T14:27:52;0.00;;;0.00;;
84478;SDS011;74701;43.248;0.066;2023-12-20T14:30:18;0.00;;;0.00;;
84478;SDS011;74701;43.248;0.066;2023-12-20T14:32:47;0.00;;;0.00;;
84478;SDS011;74701;43.248;0.066;2023-12-20T14:35:13;0.45;;;0.45;;
84478;SDS011;74701;43.248;0.066;2023-12-20T14:37:39;0.00;;;0.00;;
84478;SDS011;74701;43.248;0.066;2023-12-20T14:40:06;0.20;;;0.20;;
84478;SDS011;74701;43.248;0.066;2023-12-20T14:42:36;0.15;;;0.15;;
84478;SDS011;74701;43.248;0.066;2023-12-20T14:45:02;0.00;;;0.00;;
84478;SDS011;74701;43.248;0.066;2023-12-20T14:47:28;0.00;;;0.00;;